EVA24Q NZAA-YSSY
Flight info
| Callsign | EVA24Q |
|---|---|
| Flight time | 3h 56m |
| Altitude | 36000 |
| Route | VELMO DCT 38S163E DCT PLUGA DCT RIKNI N774 MARLN |
| Aircraft | B77W/H-SDE1E2E3FGHIJ2J3J4J5M1RWXY/LB1D1 |
Departure
| Time | 2026-05-05 17:12 |
|---|---|
| Airport | Auckland International Airport (NZAA) |
Arrival
| Time | 2026-05-05 21:09 |
|---|---|
| Airport | Sydney Kingsford Smith International Airport (YSSY) |
| Time | Latitude | Longitude | Altitude | Speed | Heading |
|---|---|---|---|---|---|
| 2026-05-05 17:02 | -37.00661 | 174.78152 | 30 ft | 0 kts | 118° |
| 2026-05-05 17:03 | -37.00651 | 174.78132 | 30 ft | 4 kts | 119° |
| 2026-05-05 17:03 | -37.00641 | 174.78101 | 30 ft | 4 kts | 112° |
| 2026-05-05 17:03 | -37.00628 | 174.78078 | 30 ft | 3 kts | 150° |
| 2026-05-05 17:04 | -37.00606 | 174.78070 | 29 ft | 4 kts | 193° |
| 2026-05-05 17:04 | -37.00581 | 174.78080 | 28 ft | 2 kts | 198° |
| 2026-05-05 17:04 | -37.00575 | 174.78082 | 29 ft | 0 kts | 198° |
| 2026-05-05 17:06 | -37.00590 | 174.78076 | 29 ft | 10 kts | 198° |
| 2026-05-05 17:06 | -37.00671 | 174.78046 | 30 ft | 13 kts | 197° |
| 2026-05-05 17:07 | -37.00755 | 174.78011 | 30 ft | 13 kts | 190° |
| 2026-05-05 17:07 | -37.00849 | 174.78034 | 30 ft | 17 kts | 160° |
| 2026-05-05 17:07 | -37.00934 | 174.78165 | 30 ft | 23 kts | 120° |
| 2026-05-05 17:07 | -37.01044 | 174.78295 | 30 ft | 25 kts | 140° |
| 2026-05-05 17:08 | -37.01044 | 174.78524 | 30 ft | 30 kts | 69° |
| 2026-05-05 17:08 | -37.00966 | 174.78785 | 30 ft | 32 kts | 70° |
| 2026-05-05 17:08 | -37.00894 | 174.79043 | 30 ft | 30 kts | 71° |
| 2026-05-05 17:08 | -37.00826 | 174.79290 | 30 ft | 30 kts | 71° |
| 2026-05-05 17:09 | -37.00761 | 174.79534 | 30 ft | 30 kts | 71° |
| 2026-05-05 17:09 | -37.00692 | 174.79782 | 30 ft | 30 kts | 70° |
| 2026-05-05 17:09 | -37.00626 | 174.80016 | 30 ft | 22 kts | 71° |
| 2026-05-05 17:09 | -37.00576 | 174.80198 | 30 ft | 22 kts | 71° |
| 2026-05-05 17:10 | -37.00530 | 174.80367 | 30 ft | 19 kts | 71° |
| 2026-05-05 17:10 | -37.00489 | 174.80519 | 30 ft | 18 kts | 78° |
| 2026-05-05 17:10 | -37.00561 | 174.80601 | 30 ft | 16 kts | 197° |
| 2026-05-05 17:10 | -37.00663 | 174.80540 | 30 ft | 16 kts | 214° |
| 2026-05-05 17:11 | -37.00697 | 174.80467 | 30 ft | 0 kts | 251° |
| 2026-05-05 17:11 | -37.00698 | 174.80467 | 30 ft | 0 kts | 251° |
| 2026-05-05 17:11 | -37.00698 | 174.80466 | 30 ft | 0 kts | 251° |
| 2026-05-05 17:11 | -37.00729 | 174.80353 | 30 ft | 35 kts | 251° |
| 2026-05-05 17:12 | -37.00935 | 174.79600 | 30 ft | 149 kts | 251° |
| 2026-05-05 17:12 | -37.01389 | 174.77961 | 196 ft | 237 kts | 252° |
| 2026-05-05 17:12 | -37.01903 | 174.75891 | 1469 ft | 252 kts | 253° |
| 2026-05-05 17:12 | -37.02441 | 174.73872 | 2764 ft | 243 kts | 252° |
| 2026-05-05 17:13 | -37.03037 | 174.71808 | 3289 ft | 262 kts | 252° |
| 2026-05-05 17:13 | -37.03659 | 174.69632 | 4062 ft | 267 kts | 252° |
| 2026-05-05 17:13 | -37.04279 | 174.67424 | 4976 ft | 269 kts | 252° |
| 2026-05-05 17:13 | -37.04900 | 174.65193 | 5820 ft | 275 kts | 253° |
| 2026-05-05 17:14 | -37.05525 | 174.62940 | 6628 ft | 279 kts | 254° |
| 2026-05-05 17:14 | -37.06151 | 174.60670 | 7623 ft | 273 kts | 253° |
| 2026-05-05 17:14 | -37.06770 | 174.58418 | 8430 ft | 275 kts | 253° |
| 2026-05-05 17:14 | -37.07398 | 174.56121 | 9198 ft | 279 kts | 253° |
| 2026-05-05 17:15 | -37.08032 | 174.53802 | 9935 ft | 285 kts | 252° |
| 2026-05-05 17:15 | -37.08682 | 174.51432 | 10656 ft | 288 kts | 253° |
| 2026-05-05 17:15 | -37.09332 | 174.49054 | 11448 ft | 289 kts | 253° |
| 2026-05-05 17:15 | -37.09984 | 174.46671 | 12293 ft | 290 kts | 253° |
| 2026-05-05 17:16 | -37.10619 | 174.44301 | 13152 ft | 290 kts | 257° |
| 2026-05-05 17:16 | -37.10902 | 174.35611 | 15920 ft | 297 kts | 273° |
| 2026-05-05 17:16 | -37.10887 | 174.32309 | 17026 ft | 299 kts | 272° |
| 2026-05-05 17:16 | -37.10882 | 174.29692 | 17870 ft | 303 kts | 272° |
| 2026-05-05 17:17 | -37.10883 | 174.27031 | 18675 ft | 308 kts | 274° |
| 2026-05-05 17:17 | -37.10887 | 174.24318 | 19385 ft | 312 kts | 273° |
| 2026-05-05 17:17 | -37.10895 | 174.21585 | 20152 ft | 314 kts | 273° |
| 2026-05-05 17:17 | -37.10905 | 174.18827 | 20928 ft | 317 kts | 272° |
| 2026-05-05 17:18 | -37.10916 | 174.16091 | 21662 ft | 320 kts | 272° |
| 2026-05-05 17:18 | -37.10928 | 174.13274 | 22362 ft | 327 kts | 272° |
| 2026-05-05 17:18 | -37.10939 | 174.10340 | 22604 ft | 348 kts | 272° |
| 2026-05-05 17:18 | -37.10950 | 174.07201 | 22783 ft | 369 kts | 272° |
| 2026-05-05 17:19 | -37.10961 | 174.03933 | 22947 ft | 390 kts | 272° |
| 2026-05-05 17:19 | -37.10975 | 174.00461 | 23309 ft | 404 kts | 271° |
| 2026-05-05 17:19 | -37.10989 | 173.97042 | 23856 ft | 413 kts | 271° |
| 2026-05-05 17:19 | -37.11005 | 173.93420 | 24472 ft | 418 kts | 271° |
| 2026-05-05 17:20 | -37.11020 | 173.89761 | 25192 ft | 418 kts | 271° |
| 2026-05-05 17:20 | -37.11033 | 173.86126 | 25987 ft | 417 kts | 270° |
| 2026-05-05 17:20 | -37.11045 | 173.82474 | 26629 ft | 421 kts | 270° |
| 2026-05-05 17:20 | -37.11055 | 173.78782 | 27147 ft | 427 kts | 270° |
| 2026-05-05 17:21 | -37.11063 | 173.75080 | 27651 ft | 432 kts | 270° |
| 2026-05-05 17:21 | -37.11070 | 173.71370 | 28213 ft | 435 kts | 270° |
| 2026-05-05 17:21 | -37.11076 | 173.67642 | 28779 ft | 439 kts | 270° |
| 2026-05-05 17:22 | -37.11085 | 173.59906 | 29825 ft | 446 kts | 270° |
| 2026-05-05 17:22 | -37.11087 | 173.55999 | 30368 ft | 449 kts | 270° |
| 2026-05-05 17:22 | -37.11088 | 173.52225 | 30796 ft | 452 kts | 269° |
| 2026-05-05 17:22 | -37.11087 | 173.48252 | 31176 ft | 456 kts | 269° |
| 2026-05-05 17:23 | -37.11086 | 173.44258 | 31564 ft | 459 kts | 269° |
| 2026-05-05 17:23 | -37.11083 | 173.40243 | 31948 ft | 462 kts | 269° |
| 2026-05-05 17:23 | -37.11078 | 173.36202 | 32316 ft | 464 kts | 269° |
| 2026-05-05 17:23 | -37.11072 | 173.32192 | 32651 ft | 467 kts | 269° |
| 2026-05-05 17:24 | -37.11065 | 173.28111 | 32970 ft | 469 kts | 269° |
| 2026-05-05 17:24 | -37.11056 | 173.24016 | 33273 ft | 471 kts | 269° |
| 2026-05-05 17:24 | -37.11046 | 173.19885 | 33550 ft | 474 kts | 269° |
| 2026-05-05 17:24 | -37.11034 | 173.15764 | 34260 ft | 464 kts | 269° |
| 2026-05-05 17:25 | -37.11020 | 173.11791 | 35272 ft | 448 kts | 269° |
| 2026-05-05 17:25 | -37.11010 | 173.09214 | 35801 ft | 440 kts | 269° |
| 2026-05-05 17:25 | -37.10990 | 173.04210 | 36414 ft | 427 kts | 269° |
| 2026-05-05 17:26 | -37.10960 | 172.96944 | 36421 ft | 417 kts | 269° |
| 2026-05-05 17:26 | -37.10925 | 172.89702 | 36439 ft | 416 kts | 269° |
| 2026-05-05 17:27 | -37.10886 | 172.82435 | 36422 ft | 417 kts | 269° |
| 2026-05-05 17:27 | -37.10843 | 172.75206 | 36424 ft | 418 kts | 269° |
| 2026-05-05 17:28 | -37.10794 | 172.67922 | 36425 ft | 418 kts | 269° |
| 2026-05-05 17:28 | -37.10740 | 172.60621 | 36420 ft | 419 kts | 269° |
| 2026-05-05 17:29 | -37.10682 | 172.53358 | 36425 ft | 418 kts | 270° |
| 2026-05-05 17:29 | -37.10620 | 172.46072 | 36423 ft | 418 kts | 270° |
| 2026-05-05 17:30 | -37.10553 | 172.38776 | 36415 ft | 417 kts | 270° |
| 2026-05-05 17:30 | -37.10482 | 172.31509 | 36431 ft | 417 kts | 270° |
| 2026-05-05 17:31 | -37.10407 | 172.24291 | 36412 ft | 416 kts | 270° |
| 2026-05-05 17:31 | -37.10327 | 172.17025 | 36426 ft | 416 kts | 270° |
| 2026-05-05 17:32 | -37.10243 | 172.09771 | 36423 ft | 415 kts | 270° |
| 2026-05-05 17:32 | -37.10155 | 172.02558 | 36409 ft | 415 kts | 270° |
| 2026-05-05 17:33 | -37.10063 | 171.95405 | 36410 ft | 415 kts | 270° |
| 2026-05-05 17:33 | -37.09966 | 171.88162 | 36423 ft | 416 kts | 270° |
| 2026-05-05 17:34 | -37.09865 | 171.80936 | 36424 ft | 416 kts | 270° |
| 2026-05-05 17:34 | -37.09758 | 171.73671 | 36423 ft | 416 kts | 270° |
| 2026-05-05 17:35 | -37.09648 | 171.66449 | 36421 ft | 417 kts | 270° |
| 2026-05-05 17:35 | -37.09533 | 171.59175 | 36415 ft | 417 kts | 270° |
| 2026-05-05 17:36 | -37.09414 | 171.51954 | 36412 ft | 417 kts | 270° |
| 2026-05-05 17:36 | -37.09290 | 171.44677 | 36394 ft | 417 kts | 270° |
| 2026-05-05 17:37 | -37.09161 | 171.37404 | 36394 ft | 416 kts | 270° |
| 2026-05-05 17:37 | -37.09029 | 171.30191 | 36408 ft | 416 kts | 270° |
| 2026-05-05 17:38 | -37.08892 | 171.22926 | 36404 ft | 416 kts | 270° |
| 2026-05-05 17:38 | -37.08751 | 171.15729 | 36401 ft | 415 kts | 270° |
| 2026-05-05 17:39 | -37.08606 | 171.08497 | 36399 ft | 415 kts | 270° |
| 2026-05-05 17:39 | -37.08456 | 171.01260 | 36392 ft | 414 kts | 270° |
| 2026-05-05 17:40 | -37.08305 | 170.94188 | 36400 ft | 414 kts | 270° |
| 2026-05-05 17:40 | -37.08147 | 170.86970 | 36387 ft | 414 kts | 270° |
| 2026-05-05 17:41 | -37.07984 | 170.79759 | 36387 ft | 414 kts | 270° |
| 2026-05-05 17:41 | -37.07818 | 170.72588 | 36386 ft | 413 kts | 270° |
| 2026-05-05 17:42 | -37.07647 | 170.65384 | 36394 ft | 414 kts | 270° |
| 2026-05-05 17:42 | -37.07472 | 170.58170 | 36393 ft | 414 kts | 270° |
| 2026-05-05 17:43 | -37.07293 | 170.51014 | 36382 ft | 414 kts | 271° |
| 2026-05-05 17:43 | -37.07109 | 170.43812 | 36388 ft | 413 kts | 271° |
| 2026-05-05 17:44 | -37.06953 | 170.37822 | 36380 ft | 413 kts | 271° |
| 2026-05-05 17:44 | -37.06760 | 170.30619 | 36377 ft | 413 kts | 271° |
| 2026-05-05 17:45 | -37.06564 | 170.23422 | 36377 ft | 413 kts | 271° |
| 2026-05-05 17:45 | -37.06365 | 170.16263 | 36381 ft | 413 kts | 271° |
| 2026-05-05 17:46 | -37.06160 | 170.09072 | 36388 ft | 412 kts | 271° |
| 2026-05-05 17:46 | -37.05951 | 170.01877 | 36375 ft | 412 kts | 271° |
| 2026-05-05 17:47 | -37.05741 | 169.94826 | 36380 ft | 412 kts | 271° |
| 2026-05-05 17:47 | -37.05523 | 169.87630 | 36372 ft | 412 kts | 271° |
| 2026-05-05 17:48 | -37.05301 | 169.80438 | 36370 ft | 413 kts | 271° |
| 2026-05-05 17:48 | -37.05076 | 169.73292 | 36371 ft | 413 kts | 271° |
| 2026-05-05 17:49 | -37.04845 | 169.66089 | 36371 ft | 413 kts | 271° |
| 2026-05-05 17:49 | -37.04611 | 169.58944 | 36370 ft | 413 kts | 271° |
| 2026-05-05 17:50 | -37.04371 | 169.51748 | 36369 ft | 413 kts | 271° |
| 2026-05-05 17:50 | -37.04128 | 169.44559 | 36371 ft | 413 kts | 271° |
| 2026-05-05 17:51 | -37.03879 | 169.37360 | 36361 ft | 413 kts | 271° |
| 2026-05-05 17:51 | -37.03628 | 169.30206 | 36371 ft | 413 kts | 271° |
| 2026-05-05 17:52 | -37.03371 | 169.23028 | 36362 ft | 412 kts | 271° |
| 2026-05-05 17:52 | -37.03112 | 169.15892 | 36369 ft | 412 kts | 271° |
| 2026-05-05 17:53 | -37.02847 | 169.08706 | 36358 ft | 412 kts | 271° |
| 2026-05-05 17:53 | -37.02578 | 169.01534 | 36365 ft | 412 kts | 271° |
| 2026-05-05 17:54 | -37.02309 | 168.94503 | 36358 ft | 411 kts | 271° |
| 2026-05-05 17:54 | -37.02032 | 168.87338 | 36358 ft | 411 kts | 272° |
| 2026-05-05 17:55 | -37.01751 | 168.80208 | 36365 ft | 412 kts | 272° |
| 2026-05-05 17:55 | -37.01466 | 168.73051 | 36356 ft | 412 kts | 272° |
| 2026-05-05 17:56 | -37.01175 | 168.65885 | 36361 ft | 411 kts | 272° |
| 2026-05-05 17:56 | -37.00882 | 168.58771 | 36357 ft | 411 kts | 272° |
| 2026-05-05 17:57 | -37.00583 | 168.51609 | 36355 ft | 411 kts | 272° |
| 2026-05-05 17:57 | -37.00282 | 168.44502 | 36354 ft | 410 kts | 272° |
| 2026-05-05 17:58 | -36.99976 | 168.37375 | 36349 ft | 410 kts | 272° |
| 2026-05-05 17:58 | -36.99666 | 168.30254 | 36353 ft | 409 kts | 272° |
| 2026-05-05 17:59 | -36.99354 | 168.23177 | 36341 ft | 409 kts | 272° |
| 2026-05-05 17:59 | -36.99036 | 168.16071 | 36347 ft | 408 kts | 272° |
| 2026-05-05 18:00 | -36.98714 | 168.08980 | 36344 ft | 407 kts | 272° |
| 2026-05-05 18:00 | -36.98391 | 168.01940 | 36347 ft | 407 kts | 272° |
| 2026-05-05 18:01 | -36.98067 | 167.94979 | 36332 ft | 407 kts | 272° |
| 2026-05-05 18:01 | -36.97733 | 167.87895 | 36343 ft | 406 kts | 272° |
| 2026-05-05 18:02 | -36.97398 | 167.80882 | 36337 ft | 406 kts | 272° |
| 2026-05-05 18:02 | -36.97057 | 167.73824 | 36332 ft | 405 kts | 272° |
| 2026-05-05 18:03 | -36.96715 | 167.66824 | 36335 ft | 405 kts | 272° |
| 2026-05-05 18:03 | -36.96366 | 167.59789 | 36332 ft | 405 kts | 272° |
| 2026-05-05 18:04 | -36.96014 | 167.52758 | 36336 ft | 404 kts | 272° |
| 2026-05-05 18:04 | -36.95660 | 167.45774 | 36331 ft | 404 kts | 272° |
| 2026-05-05 18:05 | -36.95300 | 167.38749 | 36332 ft | 404 kts | 272° |
| 2026-05-05 18:05 | -36.94936 | 167.31742 | 36328 ft | 403 kts | 272° |
| 2026-05-05 18:06 | -36.94571 | 167.24774 | 36327 ft | 403 kts | 272° |
| 2026-05-05 18:06 | -36.94199 | 167.17770 | 36324 ft | 403 kts | 272° |
| 2026-05-05 18:07 | -36.93823 | 167.10759 | 36324 ft | 403 kts | 272° |
| 2026-05-05 18:07 | -36.93445 | 167.03794 | 36320 ft | 404 kts | 272° |
| 2026-05-05 18:08 | -36.93065 | 166.96862 | 36321 ft | 404 kts | 272° |
| 2026-05-05 18:08 | -36.92679 | 166.89887 | 36318 ft | 405 kts | 272° |
| 2026-05-05 18:09 | -36.92285 | 166.82865 | 36317 ft | 405 kts | 273° |
| 2026-05-05 18:09 | -36.91888 | 166.75842 | 36312 ft | 405 kts | 273° |
| 2026-05-05 18:10 | -36.91485 | 166.68809 | 36312 ft | 405 kts | 273° |
| 2026-05-05 18:10 | -36.91081 | 166.61820 | 36307 ft | 404 kts | 273° |
| 2026-05-05 18:11 | -36.90671 | 166.54793 | 36308 ft | 404 kts | 273° |
| 2026-05-05 18:11 | -36.90261 | 166.47829 | 36310 ft | 404 kts | 273° |
| 2026-05-05 18:12 | -36.89842 | 166.40811 | 36306 ft | 403 kts | 273° |
| 2026-05-05 18:12 | -36.89424 | 166.33863 | 36303 ft | 402 kts | 273° |
| 2026-05-05 18:13 | -36.89001 | 166.26897 | 36304 ft | 401 kts | 273° |
| 2026-05-05 18:13 | -36.88575 | 166.19952 | 36297 ft | 400 kts | 273° |
| 2026-05-05 18:14 | -36.88148 | 166.13053 | 36296 ft | 399 kts | 273° |
| 2026-05-05 18:14 | -36.87715 | 166.06132 | 36292 ft | 399 kts | 273° |
| 2026-05-05 18:15 | -36.87284 | 165.99307 | 36292 ft | 399 kts | 274° |
| 2026-05-05 18:15 | -36.86845 | 165.92403 | 36296 ft | 398 kts | 274° |
| 2026-05-05 18:16 | -36.86404 | 165.85537 | 36296 ft | 399 kts | 274° |
| 2026-05-05 18:16 | -36.85955 | 165.78618 | 36301 ft | 399 kts | 274° |
| 2026-05-05 18:17 | -36.85505 | 165.71741 | 36295 ft | 399 kts | 274° |
| 2026-05-05 18:17 | -36.85047 | 165.64810 | 36290 ft | 400 kts | 274° |
| 2026-05-05 18:18 | -36.84588 | 165.57914 | 36286 ft | 400 kts | 274° |
| 2026-05-05 18:18 | -36.84122 | 165.50976 | 36286 ft | 400 kts | 274° |
| 2026-05-05 18:19 | -36.83655 | 165.44094 | 36279 ft | 400 kts | 274° |
| 2026-05-05 18:19 | -36.83181 | 165.37164 | 36278 ft | 400 kts | 274° |
| 2026-05-05 18:20 | -36.82707 | 165.30279 | 36276 ft | 400 kts | 274° |
| 2026-05-05 18:20 | -36.82225 | 165.23357 | 36279 ft | 399 kts | 274° |
| 2026-05-05 18:21 | -36.81740 | 165.16442 | 36276 ft | 399 kts | 274° |
| 2026-05-05 18:21 | -36.81254 | 165.09565 | 36279 ft | 399 kts | 274° |
| 2026-05-05 18:22 | -36.80761 | 165.02644 | 36273 ft | 399 kts | 274° |
| 2026-05-05 18:22 | -36.80275 | 164.95890 | 36269 ft | 398 kts | 274° |
| 2026-05-05 18:23 | -36.79776 | 164.89005 | 36268 ft | 398 kts | 274° |
| 2026-05-05 18:23 | -36.79276 | 164.82165 | 36269 ft | 398 kts | 274° |
| 2026-05-05 18:24 | -36.78770 | 164.75284 | 36265 ft | 398 kts | 274° |
| 2026-05-05 18:24 | -36.78259 | 164.68407 | 36266 ft | 397 kts | 275° |
| 2026-05-05 18:25 | -36.77748 | 164.61577 | 36255 ft | 397 kts | 275° |
| 2026-05-05 18:25 | -36.77231 | 164.54714 | 36256 ft | 396 kts | 275° |
| 2026-05-05 18:26 | -36.76711 | 164.47873 | 36253 ft | 395 kts | 275° |
| 2026-05-05 18:26 | -36.76191 | 164.41073 | 36258 ft | 395 kts | 275° |
| 2026-05-05 18:27 | -36.75665 | 164.34254 | 36246 ft | 394 kts | 275° |
| 2026-05-05 18:27 | -36.75140 | 164.27503 | 36253 ft | 393 kts | 275° |
| 2026-05-05 18:28 | -36.74340 | 164.17298 | 36243 ft | 392 kts | 275° |
| 2026-05-05 18:28 | -36.73807 | 164.10567 | 36250 ft | 392 kts | 275° |
| 2026-05-05 18:29 | -36.73266 | 164.03787 | 36240 ft | 392 kts | 275° |
| 2026-05-05 18:29 | -36.72729 | 163.97099 | 36245 ft | 391 kts | 275° |
| 2026-05-05 18:30 | -36.72275 | 163.91475 | 36235 ft | 391 kts | 275° |
| 2026-05-05 18:30 | -36.71726 | 163.84729 | 36235 ft | 391 kts | 275° |
| 2026-05-05 18:31 | -36.71176 | 163.78015 | 36230 ft | 391 kts | 275° |
| 2026-05-05 18:31 | -36.70619 | 163.71264 | 36232 ft | 390 kts | 275° |
| 2026-05-05 18:32 | -36.70061 | 163.64557 | 36230 ft | 390 kts | 275° |
| 2026-05-05 18:32 | -36.69498 | 163.57826 | 36226 ft | 389 kts | 275° |
| 2026-05-05 18:33 | -36.68935 | 163.51137 | 36226 ft | 389 kts | 275° |
| 2026-05-05 18:33 | -36.68367 | 163.44445 | 36221 ft | 388 kts | 275° |
| 2026-05-05 18:34 | -36.67795 | 163.37749 | 36223 ft | 387 kts | 275° |
| 2026-05-05 18:34 | -36.67222 | 163.31083 | 36219 ft | 387 kts | 276° |
| 2026-05-05 18:35 | -36.66650 | 163.24458 | 36219 ft | 386 kts | 276° |
| 2026-05-05 18:35 | -36.66070 | 163.17803 | 36213 ft | 385 kts | 276° |
| 2026-05-05 18:36 | -36.65487 | 163.11158 | 36210 ft | 384 kts | 276° |
| 2026-05-05 18:36 | -36.64907 | 163.04581 | 36205 ft | 384 kts | 276° |
| 2026-05-05 18:37 | -36.64327 | 162.98046 | 36207 ft | 383 kts | 276° |
| 2026-05-05 18:37 | -36.63738 | 162.91452 | 36210 ft | 382 kts | 276° |
| 2026-05-05 18:38 | -36.63150 | 162.84911 | 36205 ft | 382 kts | 276° |
| 2026-05-05 18:38 | -36.62556 | 162.78343 | 36193 ft | 381 kts | 276° |
| 2026-05-05 18:39 | -36.61959 | 162.71782 | 36196 ft | 380 kts | 276° |
| 2026-05-05 18:39 | -36.61363 | 162.65278 | 36187 ft | 380 kts | 276° |
| 2026-05-05 18:40 | -36.60760 | 162.58729 | 36208 ft | 380 kts | 277° |
| 2026-05-05 18:40 | -36.60154 | 162.52197 | 36184 ft | 380 kts | 277° |
| 2026-05-05 18:41 | -36.59547 | 162.45693 | 36188 ft | 380 kts | 277° |
| 2026-05-05 18:41 | -36.58934 | 162.39157 | 36184 ft | 380 kts | 277° |
| 2026-05-05 18:42 | -36.58317 | 162.32617 | 36184 ft | 380 kts | 277° |
| 2026-05-05 18:42 | -36.57696 | 162.26081 | 36182 ft | 380 kts | 277° |
| 2026-05-05 18:43 | -36.57076 | 162.19586 | 36179 ft | 379 kts | 277° |
| 2026-05-05 18:43 | -36.56451 | 162.13081 | 36171 ft | 377 kts | 277° |
| 2026-05-05 18:44 | -36.55825 | 162.06606 | 36169 ft | 375 kts | 277° |
| 2026-05-05 18:44 | -36.55204 | 162.00210 | 36168 ft | 373 kts | 277° |
| 2026-05-05 18:45 | -36.54585 | 161.93882 | 36164 ft | 372 kts | 277° |
| 2026-05-05 18:45 | -36.53960 | 161.87516 | 36163 ft | 372 kts | 277° |
| 2026-05-05 18:46 | -36.53327 | 161.81112 | 36158 ft | 373 kts | 277° |
| 2026-05-05 18:46 | -36.52692 | 161.74726 | 36158 ft | 374 kts | 278° |
| 2026-05-05 18:47 | -36.52048 | 161.68276 | 36172 ft | 375 kts | 278° |
| 2026-05-05 18:47 | -36.51397 | 161.61805 | 36165 ft | 377 kts | 278° |
| 2026-05-05 18:48 | -36.50745 | 161.55351 | 36178 ft | 378 kts | 278° |
| 2026-05-05 18:48 | -36.50086 | 161.48862 | 36153 ft | 377 kts | 278° |
| 2026-05-05 18:49 | -36.49432 | 161.42457 | 36141 ft | 373 kts | 278° |
| 2026-05-05 18:49 | -36.48777 | 161.36077 | 36140 ft | 370 kts | 278° |
| 2026-05-05 18:50 | -36.48124 | 161.29751 | 36143 ft | 368 kts | 278° |
| 2026-05-05 18:50 | -36.47473 | 161.23485 | 36141 ft | 367 kts | 278° |
| 2026-05-05 18:51 | -36.46816 | 161.17181 | 36155 ft | 368 kts | 279° |
| 2026-05-05 18:51 | -36.46151 | 161.10848 | 36145 ft | 370 kts | 279° |
| 2026-05-05 18:52 | -36.45484 | 161.04525 | 36142 ft | 371 kts | 279° |
| 2026-05-05 18:52 | -36.44814 | 160.98206 | 36137 ft | 373 kts | 279° |
| 2026-05-05 18:53 | -36.44133 | 160.91806 | 36132 ft | 374 kts | 279° |
| 2026-05-05 18:53 | -36.43450 | 160.85425 | 36122 ft | 375 kts | 279° |
| 2026-05-05 18:54 | -36.42758 | 160.78998 | 36135 ft | 375 kts | 279° |
| 2026-05-05 18:54 | -36.42062 | 160.72565 | 36123 ft | 375 kts | 279° |
| 2026-05-05 18:55 | -36.41369 | 160.66186 | 36123 ft | 374 kts | 279° |
| 2026-05-05 18:55 | -36.40668 | 160.59775 | 36121 ft | 374 kts | 279° |
| 2026-05-05 18:56 | -36.39970 | 160.53414 | 36108 ft | 373 kts | 279° |
| 2026-05-05 18:56 | -36.39263 | 160.47016 | 36115 ft | 373 kts | 279° |
| 2026-05-05 18:57 | -36.38558 | 160.40655 | 36118 ft | 374 kts | 279° |
| 2026-05-05 18:57 | -36.37842 | 160.34238 | 36118 ft | 375 kts | 280° |
| 2026-05-05 18:58 | -36.37122 | 160.27809 | 36111 ft | 376 kts | 280° |
| 2026-05-05 18:58 | -36.36402 | 160.21422 | 36108 ft | 376 kts | 280° |
| 2026-05-05 18:59 | -36.35673 | 160.14974 | 36115 ft | 377 kts | 280° |
| 2026-05-05 18:59 | -36.34939 | 160.08520 | 36104 ft | 377 kts | 280° |
| 2026-05-05 19:00 | -36.34208 | 160.02120 | 36095 ft | 377 kts | 280° |
| 2026-05-05 19:00 | -36.33477 | 159.95755 | 36095 ft | 376 kts | 280° |
| 2026-05-05 19:01 | -36.32735 | 159.89320 | 36102 ft | 376 kts | 280° |
| 2026-05-05 19:01 | -36.31995 | 159.82942 | 36093 ft | 375 kts | 281° |
| 2026-05-05 19:02 | -36.31248 | 159.76526 | 36092 ft | 375 kts | 281° |
| 2026-05-05 19:02 | -36.30501 | 159.70145 | 36093 ft | 376 kts | 281° |
| 2026-05-05 19:03 | -36.29746 | 159.63730 | 36089 ft | 376 kts | 281° |
| 2026-05-05 19:03 | -36.28987 | 159.57306 | 36089 ft | 377 kts | 281° |
| 2026-05-05 19:04 | -36.28222 | 159.50859 | 36095 ft | 377 kts | 281° |
| 2026-05-05 19:04 | -36.27458 | 159.44458 | 36081 ft | 377 kts | 281° |
| 2026-05-05 19:05 | -36.26687 | 159.38017 | 36083 ft | 377 kts | 281° |
| 2026-05-05 19:05 | -36.25913 | 159.31592 | 36075 ft | 376 kts | 281° |
| 2026-05-05 19:06 | -36.25143 | 159.25226 | 36071 ft | 375 kts | 281° |
| 2026-05-05 19:06 | -36.24367 | 159.18836 | 36090 ft | 374 kts | 281° |
| 2026-05-05 19:07 | -36.23587 | 159.12445 | 36074 ft | 374 kts | 281° |
| 2026-05-05 19:07 | -36.22810 | 159.06108 | 36072 ft | 373 kts | 281° |
| 2026-05-05 19:08 | -36.22037 | 158.99835 | 36075 ft | 372 kts | 281° |
| 2026-05-05 19:08 | -36.21259 | 158.93549 | 36075 ft | 371 kts | 281° |
| 2026-05-05 19:09 | -36.20471 | 158.87203 | 36073 ft | 371 kts | 281° |
| 2026-05-05 19:09 | -36.19685 | 158.80907 | 36062 ft | 372 kts | 281° |
| 2026-05-05 19:10 | -36.18889 | 158.74564 | 36061 ft | 373 kts | 281° |
| 2026-05-05 19:10 | -36.18088 | 158.68200 | 36062 ft | 373 kts | 281° |
| 2026-05-05 19:11 | -36.17288 | 158.61875 | 36071 ft | 374 kts | 281° |
| 2026-05-05 19:11 | -36.16477 | 158.55492 | 36072 ft | 375 kts | 281° |
| 2026-05-05 19:12 | -36.15663 | 158.49112 | 36070 ft | 375 kts | 281° |
| 2026-05-05 19:12 | -36.14846 | 158.42733 | 36058 ft | 375 kts | 282° |
| 2026-05-05 19:13 | -36.14023 | 158.36338 | 36063 ft | 375 kts | 282° |
| 2026-05-05 19:13 | -36.13204 | 158.30003 | 36061 ft | 375 kts | 282° |
| 2026-05-05 19:14 | -36.12378 | 158.23633 | 36067 ft | 374 kts | 282° |
| 2026-05-05 19:14 | -36.11549 | 158.17275 | 36061 ft | 374 kts | 281° |
| 2026-05-05 19:15 | -36.10722 | 158.10963 | 36071 ft | 374 kts | 281° |
| 2026-05-05 19:15 | -36.09888 | 158.04616 | 36067 ft | 374 kts | 281° |
| 2026-05-05 19:16 | -36.09198 | 157.99392 | 36056 ft | 374 kts | 282° |
| 2026-05-05 19:16 | -36.08219 | 157.92005 | 36054 ft | 374 kts | 282° |
| 2026-05-05 19:17 | -36.07371 | 157.85638 | 36067 ft | 375 kts | 282° |
| 2026-05-05 19:17 | -36.06663 | 157.80341 | 36064 ft | 375 kts | 282° |
| 2026-05-05 19:18 | -36.05814 | 157.74008 | 36072 ft | 375 kts | 282° |
| 2026-05-05 19:18 | -36.04956 | 157.67641 | 36065 ft | 375 kts | 282° |
| 2026-05-05 19:19 | -36.04095 | 157.61274 | 36065 ft | 375 kts | 282° |
| 2026-05-05 19:19 | -36.03232 | 157.54923 | 36065 ft | 374 kts | 282° |
| 2026-05-05 19:20 | -36.02372 | 157.48612 | 36068 ft | 374 kts | 282° |
| 2026-05-05 19:20 | -36.01502 | 157.42264 | 36067 ft | 373 kts | 282° |
| 2026-05-05 19:21 | -36.00638 | 157.35980 | 36067 ft | 373 kts | 282° |
| 2026-05-05 19:21 | -35.99766 | 157.29660 | 36065 ft | 373 kts | 282° |
| 2026-05-05 19:22 | -35.98889 | 157.23336 | 36070 ft | 373 kts | 282° |
| 2026-05-05 19:22 | -35.98015 | 157.17051 | 36077 ft | 373 kts | 282° |
| 2026-05-05 19:23 | -35.97130 | 157.10714 | 36072 ft | 373 kts | 282° |
| 2026-05-05 19:23 | -35.96248 | 157.04428 | 36074 ft | 373 kts | 282° |
| 2026-05-05 19:24 | -35.95372 | 156.98211 | 36078 ft | 373 kts | 282° |
| 2026-05-05 19:24 | -35.94480 | 156.91898 | 36077 ft | 372 kts | 282° |
| 2026-05-05 19:25 | -35.93591 | 156.85634 | 36089 ft | 372 kts | 282° |
| 2026-05-05 19:25 | -35.92693 | 156.79328 | 36080 ft | 372 kts | 282° |
| 2026-05-05 19:26 | -35.91801 | 156.73093 | 36085 ft | 371 kts | 282° |
| 2026-05-05 19:26 | -35.90901 | 156.66824 | 36083 ft | 370 kts | 282° |
| 2026-05-05 19:27 | -35.89999 | 156.60567 | 36085 ft | 370 kts | 282° |
| 2026-05-05 19:27 | -35.89096 | 156.54322 | 36103 ft | 369 kts | 282° |
| 2026-05-05 19:28 | -35.88196 | 156.48127 | 36088 ft | 369 kts | 282° |
| 2026-05-05 19:28 | -35.87291 | 156.41918 | 36086 ft | 368 kts | 282° |
| 2026-05-05 19:29 | -35.86381 | 156.35697 | 36092 ft | 368 kts | 282° |
| 2026-05-05 19:29 | -35.85468 | 156.29479 | 36092 ft | 367 kts | 282° |
| 2026-05-05 19:30 | -35.84558 | 156.23310 | 36107 ft | 367 kts | 282° |
| 2026-05-05 19:30 | -35.83641 | 156.17113 | 36093 ft | 367 kts | 282° |
| 2026-05-05 19:31 | -35.82722 | 156.10924 | 36095 ft | 366 kts | 282° |
| 2026-05-05 19:31 | -35.81805 | 156.04773 | 36097 ft | 366 kts | 282° |
| 2026-05-05 19:32 | -35.80898 | 155.98707 | 36100 ft | 365 kts | 282° |
| 2026-05-05 19:32 | -35.79973 | 155.92547 | 36107 ft | 365 kts | 282° |
| 2026-05-05 19:33 | -35.79046 | 155.86393 | 36097 ft | 365 kts | 282° |
| 2026-05-05 19:33 | -35.78116 | 155.80244 | 36104 ft | 365 kts | 283° |
| 2026-05-05 19:34 | -35.77187 | 155.74126 | 36098 ft | 365 kts | 283° |
| 2026-05-05 19:35 | -35.75785 | 155.64927 | 36104 ft | 365 kts | 283° |
| 2026-05-05 19:35 | -35.74841 | 155.58766 | 36108 ft | 365 kts | 283° |
| 2026-05-05 19:36 | -35.73900 | 155.52642 | 36104 ft | 366 kts | 283° |
| 2026-05-05 19:36 | -35.72949 | 155.46477 | 36109 ft | 366 kts | 283° |
| 2026-05-05 19:37 | -35.71995 | 155.40311 | 36107 ft | 366 kts | 283° |
| 2026-05-05 19:37 | -35.71037 | 155.34143 | 36103 ft | 367 kts | 283° |
| 2026-05-05 19:38 | -35.70081 | 155.28007 | 36103 ft | 367 kts | 283° |
| 2026-05-05 19:38 | -35.69116 | 155.21836 | 36106 ft | 367 kts | 283° |
| 2026-05-05 19:39 | -35.68153 | 155.15704 | 36106 ft | 367 kts | 283° |
| 2026-05-05 19:39 | -35.67182 | 155.09532 | 36104 ft | 366 kts | 283° |
| 2026-05-05 19:40 | -35.66215 | 155.03414 | 36102 ft | 366 kts | 283° |
| 2026-05-05 19:40 | -35.65250 | 154.97328 | 36104 ft | 366 kts | 283° |
| 2026-05-05 19:41 | -35.64271 | 154.91177 | 36106 ft | 366 kts | 283° |
| 2026-05-05 19:41 | -35.63290 | 154.85031 | 36103 ft | 366 kts | 283° |
| 2026-05-05 19:42 | -35.62312 | 154.78918 | 36105 ft | 366 kts | 283° |
| 2026-05-05 19:42 | -35.61255 | 154.72825 | 36108 ft | 364 kts | 289° |
| 2026-05-05 19:43 | -35.59138 | 154.67189 | 36113 ft | 364 kts | 299° |
| 2026-05-05 19:43 | -35.56126 | 154.62178 | 36118 ft | 365 kts | 308° |
| 2026-05-05 19:44 | -35.52800 | 154.57477 | 36111 ft | 366 kts | 308° |
| 2026-05-05 19:44 | -35.49447 | 154.52754 | 36113 ft | 367 kts | 308° |
| 2026-05-05 19:45 | -35.46120 | 154.48036 | 36115 ft | 367 kts | 308° |
| 2026-05-05 19:45 | -35.42782 | 154.43286 | 36118 ft | 367 kts | 308° |
| 2026-05-05 19:46 | -35.39436 | 154.38523 | 36117 ft | 368 kts | 308° |
| 2026-05-05 19:46 | -35.36096 | 154.33773 | 36133 ft | 368 kts | 308° |
| 2026-05-05 19:47 | -35.32768 | 154.29047 | 36102 ft | 368 kts | 308° |
| 2026-05-05 19:47 | -35.29430 | 154.24313 | 36109 ft | 367 kts | 308° |
| 2026-05-05 19:48 | -35.26091 | 154.19584 | 36115 ft | 365 kts | 308° |
| 2026-05-05 19:48 | -35.22784 | 154.14907 | 36117 ft | 364 kts | 308° |
| 2026-05-05 19:49 | -35.19468 | 154.10222 | 36119 ft | 364 kts | 308° |
| 2026-05-05 19:49 | -35.16153 | 154.05546 | 36121 ft | 363 kts | 308° |
| 2026-05-05 19:50 | -35.12856 | 154.00900 | 36121 ft | 363 kts | 308° |
| 2026-05-05 19:50 | -35.09576 | 153.96286 | 36121 ft | 364 kts | 308° |
| 2026-05-05 19:51 | -35.06252 | 153.91615 | 36118 ft | 364 kts | 308° |
| 2026-05-05 19:51 | -35.02943 | 153.86974 | 36121 ft | 364 kts | 308° |
| 2026-05-05 19:52 | -34.99604 | 153.82295 | 36119 ft | 365 kts | 308° |
| 2026-05-05 19:52 | -34.96277 | 153.77640 | 36117 ft | 365 kts | 308° |
| 2026-05-05 19:53 | -34.92941 | 153.72979 | 36125 ft | 364 kts | 308° |
| 2026-05-05 19:53 | -34.89625 | 153.68350 | 36121 ft | 363 kts | 308° |
| 2026-05-05 19:54 | -34.86295 | 153.63710 | 36120 ft | 362 kts | 308° |
| 2026-05-05 19:54 | -34.82996 | 153.59119 | 36123 ft | 362 kts | 308° |
| 2026-05-05 19:55 | -34.79673 | 153.54500 | 36124 ft | 361 kts | 308° |
| 2026-05-05 19:55 | -34.76379 | 153.49928 | 36123 ft | 361 kts | 308° |
| 2026-05-05 19:56 | -34.73064 | 153.45331 | 36125 ft | 361 kts | 308° |
| 2026-05-05 19:56 | -34.69740 | 153.40730 | 36129 ft | 362 kts | 309° |
| 2026-05-05 19:57 | -34.66403 | 153.36116 | 36132 ft | 362 kts | 309° |
| 2026-05-05 19:57 | -34.63086 | 153.31536 | 36127 ft | 362 kts | 309° |
| 2026-05-05 19:58 | -34.59753 | 153.26940 | 36126 ft | 362 kts | 309° |
| 2026-05-05 19:58 | -34.56440 | 153.22378 | 36128 ft | 362 kts | 309° |
| 2026-05-05 19:59 | -34.53105 | 153.17790 | 36127 ft | 361 kts | 309° |
| 2026-05-05 19:59 | -34.49772 | 153.13213 | 36132 ft | 361 kts | 309° |
| 2026-05-05 20:00 | -34.46449 | 153.08654 | 36131 ft | 360 kts | 309° |
| 2026-05-05 20:00 | -34.43143 | 153.04125 | 36131 ft | 360 kts | 309° |
| 2026-05-05 20:01 | -34.39855 | 152.99626 | 36136 ft | 360 kts | 309° |
| 2026-05-05 20:01 | -34.36543 | 152.95100 | 36140 ft | 361 kts | 309° |
| 2026-05-05 20:02 | -34.33201 | 152.90539 | 36139 ft | 361 kts | 309° |
| 2026-05-05 20:02 | -34.29879 | 152.86011 | 36122 ft | 361 kts | 309° |
| 2026-05-05 20:03 | -34.26537 | 152.81462 | 36133 ft | 361 kts | 309° |
| 2026-05-05 20:03 | -34.23198 | 152.76922 | 36142 ft | 361 kts | 309° |
| 2026-05-05 20:04 | -34.19878 | 152.72415 | 36144 ft | 361 kts | 309° |
| 2026-05-05 20:04 | -34.16537 | 152.67884 | 36142 ft | 360 kts | 309° |
| 2026-05-05 20:05 | -34.13214 | 152.63381 | 36144 ft | 360 kts | 309° |
| 2026-05-05 20:05 | -34.10496 | 152.59565 | 36141 ft | 358 kts | 302° |
| 2026-05-05 20:06 | -34.08338 | 152.54177 | 36153 ft | 358 kts | 291° |
| 2026-05-05 20:06 | -34.07330 | 152.48310 | 36156 ft | 362 kts | 280° |
| 2026-05-05 20:06 | -34.07065 | 152.45265 | 35870 ft | 365 kts | 279° |
| 2026-05-05 20:07 | -34.06811 | 152.42223 | 35415 ft | 364 kts | 279° |
| 2026-05-05 20:07 | -34.06540 | 152.39108 | 34598 ft | 383 kts | 279° |
| 2026-05-05 20:07 | -34.06240 | 152.35841 | 33837 ft | 400 kts | 279° |
| 2026-05-05 20:07 | -34.05925 | 152.32474 | 33386 ft | 407 kts | 279° |
| 2026-05-05 20:08 | -34.05603 | 152.29064 | 33004 ft | 412 kts | 279° |
| 2026-05-05 20:08 | -34.05280 | 152.25651 | 32714 ft | 415 kts | 279° |
| 2026-05-05 20:08 | -34.04954 | 152.22186 | 32557 ft | 415 kts | 279° |
| 2026-05-05 20:09 | -34.04308 | 152.15298 | 32444 ft | 411 kts | 279° |
| 2026-05-05 20:09 | -34.03984 | 152.11875 | 32332 ft | 411 kts | 279° |
| 2026-05-05 20:09 | -34.03653 | 152.08442 | 32206 ft | 410 kts | 279° |
| 2026-05-05 20:09 | -34.03324 | 152.05064 | 32101 ft | 410 kts | 280° |
| 2026-05-05 20:10 | -34.02977 | 152.01650 | 31998 ft | 410 kts | 280° |
| 2026-05-05 20:10 | -34.02284 | 151.94914 | 31962 ft | 406 kts | 280° |
| 2026-05-05 20:11 | -34.01600 | 151.88165 | 31930 ft | 404 kts | 279° |
| 2026-05-05 20:11 | -34.00917 | 151.81494 | 31918 ft | 401 kts | 280° |
| 2026-05-05 20:11 | -34.00497 | 151.78194 | 31748 ft | 391 kts | 286° |
| 2026-05-05 20:12 | -33.99608 | 151.75160 | 31442 ft | 379 kts | 296° |
| 2026-05-05 20:12 | -33.98349 | 151.72406 | 31163 ft | 369 kts | 301° |
| 2026-05-05 20:12 | -33.97137 | 151.69763 | 30888 ft | 361 kts | 297° |
| 2026-05-05 20:12 | -33.96051 | 151.67073 | 30606 ft | 354 kts | 296° |
| 2026-05-05 20:13 | -33.94997 | 151.64415 | 30340 ft | 347 kts | 296° |
| 2026-05-05 20:13 | -33.93951 | 151.61823 | 30041 ft | 341 kts | 297° |
| 2026-05-05 20:13 | -33.92910 | 151.59281 | 29727 ft | 334 kts | 297° |
| 2026-05-05 20:13 | -33.91767 | 151.56886 | 29364 ft | 326 kts | 308° |
| 2026-05-05 20:14 | -33.90169 | 151.55014 | 29068 ft | 323 kts | 320° |
| 2026-05-05 20:14 | -33.88281 | 151.53550 | 28773 ft | 323 kts | 328° |
| 2026-05-05 20:14 | -33.86197 | 151.52467 | 28477 ft | 328 kts | 337° |
| 2026-05-05 20:14 | -33.83950 | 151.51877 | 28178 ft | 334 kts | 349° |
| 2026-05-05 20:15 | -33.81598 | 151.51934 | 27891 ft | 344 kts | 2° |
| 2026-05-05 20:15 | -33.79261 | 151.52733 | 27603 ft | 355 kts | 17° |
| 2026-05-05 20:15 | -33.77133 | 151.54250 | 27331 ft | 366 kts | 32° |
| 2026-05-05 20:15 | -33.75316 | 151.56457 | 27046 ft | 377 kts | 47° |
| 2026-05-05 20:16 | -33.73995 | 151.59232 | 26772 ft | 388 kts | 63° |
| 2026-05-05 20:16 | -33.73314 | 151.62414 | 26490 ft | 397 kts | 81° |
| 2026-05-05 20:16 | -33.73289 | 151.65745 | 26242 ft | 401 kts | 94° |
| 2026-05-05 20:16 | -33.73940 | 151.68967 | 25955 ft | 402 kts | 114° |
| 2026-05-05 20:17 | -33.75197 | 151.71959 | 25720 ft | 400 kts | 118° |
| 2026-05-05 20:17 | -33.76482 | 151.74931 | 25462 ft | 400 kts | 117° |
| 2026-05-05 20:17 | -33.77728 | 151.77927 | 25202 ft | 398 kts | 116° |
| 2026-05-05 20:17 | -33.79048 | 151.80825 | 24919 ft | 391 kts | 129° |
| 2026-05-05 20:18 | -33.80920 | 151.83074 | 24659 ft | 381 kts | 147° |
| 2026-05-05 20:18 | -33.83192 | 151.84608 | 24433 ft | 370 kts | 163° |
| 2026-05-05 20:18 | -33.85636 | 151.85436 | 24177 ft | 359 kts | 176° |
| 2026-05-05 20:18 | -33.88096 | 151.85560 | 23916 ft | 348 kts | 191° |
| 2026-05-05 20:19 | -33.90395 | 151.85008 | 23655 ft | 337 kts | 204° |
| 2026-05-05 20:19 | -33.92482 | 151.83832 | 23356 ft | 327 kts | 218° |
| 2026-05-05 20:19 | -33.94245 | 151.82135 | 23068 ft | 323 kts | 230° |
| 2026-05-05 20:19 | -33.95635 | 151.80026 | 22788 ft | 321 kts | 242° |
| 2026-05-05 20:20 | -33.96604 | 151.77616 | 22506 ft | 319 kts | 254° |
| 2026-05-05 20:20 | -33.97107 | 151.75029 | 22219 ft | 315 kts | 265° |
| 2026-05-05 20:20 | -33.97238 | 151.72397 | 21942 ft | 314 kts | 271° |
| 2026-05-05 20:20 | -33.97045 | 151.69784 | 21649 ft | 313 kts | 283° |
| 2026-05-05 20:21 | -33.96268 | 151.67387 | 21351 ft | 310 kts | 296° |
| 2026-05-05 20:21 | -33.95284 | 151.65076 | 21105 ft | 309 kts | 296° |
| 2026-05-05 20:21 | -33.94323 | 151.62758 | 20829 ft | 309 kts | 295° |
| 2026-05-05 20:21 | -33.93372 | 151.60432 | 20555 ft | 309 kts | 295° |
| 2026-05-05 20:22 | -33.92421 | 151.58103 | 20284 ft | 308 kts | 297° |
| 2026-05-05 20:22 | -33.91130 | 151.56109 | 19971 ft | 310 kts | 318° |
| 2026-05-05 20:22 | -33.89273 | 151.54777 | 19733 ft | 313 kts | 337° |
| 2026-05-05 20:22 | -33.87136 | 151.54214 | 19473 ft | 318 kts | 355° |
| 2026-05-05 20:23 | -33.84924 | 151.54511 | 19213 ft | 324 kts | 14° |
| 2026-05-05 20:23 | -33.82906 | 151.55737 | 18951 ft | 329 kts | 36° |
| 2026-05-05 20:23 | -33.81380 | 151.57803 | 18695 ft | 333 kts | 59° |
| 2026-05-05 20:23 | -33.80601 | 151.60395 | 18440 ft | 335 kts | 82° |
| 2026-05-05 20:24 | -33.80609 | 151.63177 | 18181 ft | 334 kts | 101° |
| 2026-05-05 20:24 | -33.81353 | 151.65804 | 17869 ft | 330 kts | 117° |
| 2026-05-05 20:24 | -33.82379 | 151.68273 | 17613 ft | 330 kts | 118° |
| 2026-05-05 20:24 | -33.83431 | 151.70745 | 17333 ft | 331 kts | 118° |
| 2026-05-05 20:25 | -33.84451 | 151.73193 | 17051 ft | 331 kts | 118° |
| 2026-05-05 20:25 | -33.85469 | 151.75684 | 16770 ft | 330 kts | 117° |
| 2026-05-05 20:25 | -33.86473 | 151.78164 | 16488 ft | 327 kts | 117° |
| 2026-05-05 20:25 | -33.87619 | 151.80472 | 16168 ft | 317 kts | 135° |
| 2026-05-05 20:26 | -33.89332 | 151.82046 | 15899 ft | 307 kts | 158° |
| 2026-05-05 20:26 | -33.91312 | 151.82782 | 15640 ft | 299 kts | 176° |
| 2026-05-05 20:26 | -33.93371 | 151.82747 | 15373 ft | 293 kts | 194° |
| 2026-05-05 20:26 | -33.95282 | 151.81964 | 15108 ft | 288 kts | 212° |
| 2026-05-05 20:27 | -33.96858 | 151.80513 | 14844 ft | 284 kts | 230° |
| 2026-05-05 20:27 | -33.97934 | 151.78580 | 14598 ft | 281 kts | 247° |
| 2026-05-05 20:27 | -33.98459 | 151.76318 | 14334 ft | 280 kts | 262° |
| 2026-05-05 20:27 | -33.98538 | 151.73966 | 14082 ft | 281 kts | 274° |
| 2026-05-05 20:28 | -33.98022 | 151.71703 | 13786 ft | 282 kts | 293° |
| 2026-05-05 20:28 | -33.97145 | 151.69594 | 13535 ft | 281 kts | 294° |
| 2026-05-05 20:28 | -33.96260 | 151.67488 | 13251 ft | 282 kts | 294° |
| 2026-05-05 20:28 | -33.95382 | 151.65368 | 12973 ft | 283 kts | 294° |
| 2026-05-05 20:29 | -33.94512 | 151.63240 | 12701 ft | 283 kts | 294° |
| 2026-05-05 20:29 | -33.93654 | 151.61132 | 12426 ft | 284 kts | 294° |
| 2026-05-05 20:29 | -33.92785 | 151.58990 | 12148 ft | 283 kts | 294° |
| 2026-05-05 20:29 | -33.91785 | 151.56975 | 11837 ft | 281 kts | 310° |
| 2026-05-05 20:30 | -33.90196 | 151.55614 | 11563 ft | 283 kts | 334° |
| 2026-05-05 20:30 | -33.88276 | 151.55106 | 11297 ft | 286 kts | 356° |
| 2026-05-05 20:30 | -33.86334 | 151.55497 | 11039 ft | 290 kts | 19° |
| 2026-05-05 20:30 | -33.84636 | 151.56801 | 10766 ft | 293 kts | 44° |
| 2026-05-05 20:31 | -33.83530 | 151.58858 | 10500 ft | 294 kts | 70° |
| 2026-05-05 20:31 | -33.83240 | 151.61277 | 10243 ft | 293 kts | 94° |
| 2026-05-05 20:31 | -33.83714 | 151.63631 | 9975 ft | 291 kts | 116° |
| 2026-05-05 20:31 | -33.84619 | 151.65830 | 9732 ft | 293 kts | 119° |
| 2026-05-05 20:32 | -33.85529 | 151.68010 | 9459 ft | 296 kts | 118° |
| 2026-05-05 20:32 | -33.86443 | 151.70233 | 9181 ft | 296 kts | 118° |
| 2026-05-05 20:32 | -33.87375 | 151.72426 | 8876 ft | 289 kts | 126° |
| 2026-05-05 20:32 | -33.88764 | 151.74084 | 8562 ft | 278 kts | 153° |
| 2026-05-05 20:33 | -33.90543 | 151.74836 | 8300 ft | 267 kts | 176° |
| 2026-05-05 20:33 | -33.92363 | 151.74738 | 8026 ft | 259 kts | 196° |
| 2026-05-05 20:33 | -33.93976 | 151.73921 | 7756 ft | 253 kts | 216° |
| 2026-05-05 20:33 | -33.95237 | 151.72471 | 7478 ft | 251 kts | 236° |
| 2026-05-05 20:34 | -33.95974 | 151.70570 | 7232 ft | 252 kts | 255° |
| 2026-05-05 20:34 | -33.96206 | 151.68470 | 6984 ft | 254 kts | 268° |
| 2026-05-05 20:34 | -33.95874 | 151.66408 | 6706 ft | 257 kts | 289° |
| 2026-05-05 20:34 | -33.95102 | 151.64454 | 6453 ft | 258 kts | 294° |
| 2026-05-05 20:35 | -33.94274 | 151.62514 | 6176 ft | 260 kts | 294° |
| 2026-05-05 20:35 | -33.93468 | 151.60590 | 5910 ft | 259 kts | 294° |
| 2026-05-05 20:35 | -33.92665 | 151.58647 | 5628 ft | 258 kts | 294° |
| 2026-05-05 20:35 | -33.91667 | 151.56892 | 5300 ft | 257 kts | 316° |
| 2026-05-05 20:36 | -33.90100 | 151.55907 | 5230 ft | 258 kts | 343° |
| 2026-05-05 20:36 | -33.88276 | 151.55828 | 5187 ft | 268 kts | 9° |
| 2026-05-05 20:36 | -33.86553 | 151.56728 | 5168 ft | 274 kts | 38° |
| 2026-05-05 20:36 | -33.85387 | 151.58483 | 5164 ft | 273 kts | 69° |
| 2026-05-05 20:37 | -33.85095 | 151.60692 | 5161 ft | 267 kts | 101° |
| 2026-05-05 20:37 | -33.85392 | 151.62133 | 5166 ft | 261 kts | 115° |
| 2026-05-05 20:37 | -33.86424 | 151.64720 | 5176 ft | 259 kts | 120° |
| 2026-05-05 20:37 | -33.87229 | 151.66678 | 5177 ft | 261 kts | 119° |
| 2026-05-05 20:38 | -33.88035 | 151.68651 | 5172 ft | 263 kts | 120° |
| 2026-05-05 20:38 | -33.88866 | 151.70609 | 5160 ft | 259 kts | 126° |
| 2026-05-05 20:38 | -33.90126 | 151.72045 | 5174 ft | 251 kts | 156° |
| 2026-05-05 20:38 | -33.91787 | 151.72581 | 5178 ft | 247 kts | 182° |
| 2026-05-05 20:39 | -33.93467 | 151.72218 | 5167 ft | 246 kts | 204° |
| 2026-05-05 20:39 | -33.94872 | 151.71056 | 5174 ft | 247 kts | 227° |
| 2026-05-05 20:39 | -33.95729 | 151.69287 | 5171 ft | 250 kts | 252° |
| 2026-05-05 20:39 | -33.95908 | 151.67201 | 5162 ft | 252 kts | 274° |
| 2026-05-05 20:40 | -33.95361 | 151.65211 | 5169 ft | 252 kts | 293° |
| 2026-05-05 20:40 | -33.94574 | 151.63330 | 5178 ft | 256 kts | 293° |
| 2026-05-05 20:40 | -33.93777 | 151.61392 | 5170 ft | 258 kts | 293° |
| 2026-05-05 20:40 | -33.92980 | 151.59446 | 5168 ft | 259 kts | 292° |
| 2026-05-05 20:41 | -33.92140 | 151.57536 | 5148 ft | 257 kts | 304° |
| 2026-05-05 20:41 | -33.90768 | 151.56158 | 5170 ft | 262 kts | 332° |
| 2026-05-05 20:41 | -33.88989 | 151.55670 | 5165 ft | 267 kts | 359° |
| 2026-05-05 20:41 | -33.87180 | 151.56168 | 5174 ft | 271 kts | 26° |
| 2026-05-05 20:42 | -33.85755 | 151.57589 | 5170 ft | 272 kts | 56° |
| 2026-05-05 20:42 | -33.85040 | 151.59669 | 5168 ft | 270 kts | 86° |
| 2026-05-05 20:42 | -33.85207 | 151.61886 | 5177 ft | 263 kts | 112° |
| 2026-05-05 20:42 | -33.85953 | 151.63859 | 5182 ft | 258 kts | 120° |
| 2026-05-05 20:43 | -33.86749 | 151.65788 | 5177 ft | 261 kts | 120° |
| 2026-05-05 20:43 | -33.87557 | 151.67763 | 5179 ft | 264 kts | 119° |
| 2026-05-05 20:43 | -33.88367 | 151.69749 | 5176 ft | 265 kts | 119° |
| 2026-05-05 20:43 | -33.89396 | 151.71521 | 5154 ft | 255 kts | 143° |
| 2026-05-05 20:44 | -33.90941 | 151.72476 | 5170 ft | 248 kts | 171° |
| 2026-05-05 20:44 | -33.92648 | 151.72520 | 5173 ft | 246 kts | 193° |
| 2026-05-05 20:44 | -33.94216 | 151.71731 | 5175 ft | 246 kts | 216° |
| 2026-05-05 20:44 | -33.95360 | 151.70239 | 5169 ft | 249 kts | 239° |
| 2026-05-05 20:45 | -33.95713 | 151.66165 | 5158 ft | 251 kts | 288° |
| 2026-05-05 20:45 | -33.94972 | 151.64278 | 5181 ft | 254 kts | 294° |
| 2026-05-05 20:45 | -33.94173 | 151.62351 | 5167 ft | 258 kts | 293° |
| 2026-05-05 20:46 | -33.93375 | 151.60404 | 5175 ft | 259 kts | 293° |
| 2026-05-05 20:46 | -33.92588 | 151.58477 | 5170 ft | 257 kts | 293° |
| 2026-05-05 20:46 | -33.91539 | 151.56765 | 5161 ft | 258 kts | 318° |
| 2026-05-05 20:46 | -33.89913 | 151.55798 | 5180 ft | 267 kts | 345° |
| 2026-05-05 20:47 | -33.88037 | 151.55769 | 5177 ft | 273 kts | 11° |
| 2026-05-05 20:47 | -33.86348 | 151.56736 | 5167 ft | 275 kts | 40° |
| 2026-05-05 20:47 | -33.85225 | 151.58564 | 5171 ft | 272 kts | 71° |
| 2026-05-05 20:47 | -33.84969 | 151.60772 | 5166 ft | 265 kts | 99° |
| 2026-05-05 20:48 | -33.85476 | 151.62860 | 5169 ft | 258 kts | 119° |
| 2026-05-05 20:48 | -33.86270 | 151.64798 | 5179 ft | 258 kts | 120° |
| 2026-05-05 20:48 | -33.87074 | 151.66745 | 5175 ft | 261 kts | 120° |
| 2026-05-05 20:48 | -33.87878 | 151.68707 | 5167 ft | 262 kts | 119° |
| 2026-05-05 20:49 | -33.88694 | 151.70638 | 5156 ft | 257 kts | 127° |
| 2026-05-05 20:49 | -33.89959 | 151.72078 | 5173 ft | 248 kts | 156° |
| 2026-05-05 20:49 | -33.91607 | 151.72623 | 5183 ft | 247 kts | 180° |
| 2026-05-05 20:49 | -33.93284 | 151.72330 | 5179 ft | 248 kts | 202° |
| 2026-05-05 20:50 | -33.94735 | 151.71239 | 5177 ft | 247 kts | 225° |
| 2026-05-05 20:50 | -33.95431 | 151.70116 | 5165 ft | 248 kts | 242° |
| 2026-05-05 20:50 | -33.95897 | 151.67440 | 5180 ft | 251 kts | 270° |
| 2026-05-05 20:50 | -33.95443 | 151.65415 | 5171 ft | 250 kts | 294° |
| 2026-05-05 20:51 | -33.94649 | 151.63527 | 5176 ft | 256 kts | 294° |
| 2026-05-05 20:51 | -33.93856 | 151.61591 | 5180 ft | 258 kts | 293° |
| 2026-05-05 20:51 | -33.93075 | 151.59677 | 5171 ft | 256 kts | 292° |
| 2026-05-05 20:51 | -33.92271 | 151.57781 | 5150 ft | 251 kts | 300° |
| 2026-05-05 20:52 | -33.90994 | 151.56331 | 5177 ft | 260 kts | 329° |
| 2026-05-05 20:52 | -33.89228 | 151.55710 | 5182 ft | 270 kts | 355° |
| 2026-05-05 20:52 | -33.87978 | 151.55851 | 5164 ft | 275 kts | 14° |
| 2026-05-05 20:52 | -33.86309 | 151.56933 | 5169 ft | 275 kts | 44° |
| 2026-05-05 20:53 | -33.85145 | 151.59560 | 5166 ft | 269 kts | 86° |
| 2026-05-05 20:53 | -33.85173 | 151.61058 | 5169 ft | 263 kts | 104° |
| 2026-05-05 20:53 | -33.85777 | 151.63086 | 5177 ft | 259 kts | 119° |
| 2026-05-05 20:53 | -33.86576 | 151.65032 | 5174 ft | 260 kts | 120° |
| 2026-05-05 20:54 | -33.87380 | 151.66986 | 5173 ft | 261 kts | 120° |
| 2026-05-05 20:54 | -33.88185 | 151.68952 | 5176 ft | 262 kts | 119° |
| 2026-05-05 20:54 | -33.89049 | 151.70864 | 5153 ft | 255 kts | 132° |
| 2026-05-05 20:54 | -33.90416 | 151.72138 | 5179 ft | 248 kts | 160° |
| 2026-05-05 20:55 | -33.92085 | 151.72517 | 5182 ft | 248 kts | 185° |
| 2026-05-05 20:55 | -33.93747 | 151.72029 | 5171 ft | 247 kts | 208° |
| 2026-05-05 20:55 | -33.95075 | 151.70746 | 5174 ft | 247 kts | 232° |
| 2026-05-05 20:55 | -33.95799 | 151.68907 | 5176 ft | 249 kts | 257° |
| 2026-05-05 20:56 | -33.95858 | 151.66793 | 5168 ft | 253 kts | 278° |
| 2026-05-05 20:56 | -33.95267 | 151.64821 | 5184 ft | 254 kts | 292° |
| 2026-05-05 20:56 | -33.94460 | 151.62904 | 5166 ft | 256 kts | 294° |
| 2026-05-05 20:56 | -33.93645 | 151.60982 | 5173 ft | 257 kts | 294° |
| 2026-05-05 20:57 | -33.92844 | 151.59058 | 5175 ft | 257 kts | 293° |
| 2026-05-05 20:57 | -33.91945 | 151.57234 | 5153 ft | 257 kts | 309° |
| 2026-05-05 20:57 | -33.90467 | 151.56010 | 5173 ft | 263 kts | 337° |
| 2026-05-05 20:57 | -33.88651 | 151.55667 | 5179 ft | 268 kts | 3° |
| 2026-05-05 20:58 | -33.86860 | 151.56305 | 5166 ft | 272 kts | 31° |
| 2026-05-05 20:58 | -33.85514 | 151.57836 | 5176 ft | 272 kts | 59° |
| 2026-05-05 20:58 | -33.84917 | 151.59967 | 5178 ft | 269 kts | 89° |
| 2026-05-05 20:58 | -33.85167 | 151.62159 | 5181 ft | 264 kts | 113° |
| 2026-05-05 20:59 | -33.85938 | 151.64141 | 5189 ft | 261 kts | 119° |
| 2026-05-05 20:59 | -33.86754 | 151.66114 | 5185 ft | 264 kts | 119° |
| 2026-05-05 20:59 | -33.87559 | 151.68079 | 5182 ft | 264 kts | 119° |
| 2026-05-05 20:59 | -33.88371 | 151.70066 | 5171 ft | 263 kts | 121° |
| 2026-05-05 21:00 | -33.89463 | 151.71749 | 5170 ft | 251 kts | 147° |
| 2026-05-05 21:00 | -33.91028 | 151.72593 | 5179 ft | 246 kts | 172° |
| 2026-05-05 21:00 | -33.92728 | 151.72577 | 5182 ft | 245 kts | 194° |
| 2026-05-05 21:00 | -33.94284 | 151.71751 | 5179 ft | 247 kts | 217° |
| 2026-05-05 21:01 | -33.95418 | 151.70203 | 5173 ft | 250 kts | 241° |
| 2026-05-05 21:01 | -33.95882 | 151.68217 | 5169 ft | 252 kts | 265° |
| 2026-05-05 21:01 | -33.95691 | 151.66127 | 5165 ft | 253 kts | 285° |
| 2026-05-05 21:01 | -33.94971 | 151.64133 | 5184 ft | 265 kts | 293° |
| 2026-05-05 21:02 | -33.94131 | 151.62138 | 5172 ft | 268 kts | 294° |
| 2026-05-05 21:02 | -33.93289 | 151.60131 | 5181 ft | 268 kts | 294° |
| 2026-05-05 21:02 | -33.92464 | 151.58141 | 5172 ft | 268 kts | 294° |
| 2026-05-05 21:02 | -33.91627 | 151.56135 | 5177 ft | 268 kts | 294° |
| 2026-05-05 21:03 | -33.90793 | 151.54129 | 5192 ft | 267 kts | 294° |
| 2026-05-05 21:03 | -33.89961 | 151.52121 | 5188 ft | 268 kts | 293° |
| 2026-05-05 21:03 | -33.89132 | 151.50113 | 5207 ft | 268 kts | 293° |
| 2026-05-05 21:03 | -33.88306 | 151.48115 | 5172 ft | 263 kts | 294° |
| 2026-05-05 21:04 | -33.87657 | 151.46099 | 5117 ft | 265 kts | 273° |
| 2026-05-05 21:04 | -33.87786 | 151.43801 | 5178 ft | 291 kts | 254° |
| 2026-05-05 21:04 | -33.88354 | 151.41503 | 4928 ft | 278 kts | 250° |
| 2026-05-05 21:04 | -33.88927 | 151.39344 | 4547 ft | 261 kts | 251° |
| 2026-05-05 21:05 | -33.89413 | 151.37344 | 4157 ft | 236 kts | 252° |
| 2026-05-05 21:05 | -33.89840 | 151.35528 | 3741 ft | 215 kts | 251° |
| 2026-05-05 21:05 | -33.90230 | 151.33877 | 3325 ft | 200 kts | 249° |
| 2026-05-05 21:05 | -33.90606 | 151.32301 | 2932 ft | 197 kts | 250° |
| 2026-05-05 21:06 | -33.91022 | 151.30718 | 2384 ft | 196 kts | 248° |
| 2026-05-05 21:06 | -33.91415 | 151.29198 | 2023 ft | 179 kts | 252° |
| 2026-05-05 21:06 | -33.91663 | 151.27839 | 1807 ft | 158 kts | 253° |
| 2026-05-05 21:06 | -33.91922 | 151.26617 | 1461 ft | 146 kts | 250° |
| 2026-05-05 21:07 | -33.92223 | 151.25496 | 1266 ft | 136 kts | 248° |
| 2026-05-05 21:07 | -33.92497 | 151.24366 | 1110 ft | 140 kts | 250° |
| 2026-05-05 21:07 | -33.92755 | 151.23206 | 844 ft | 147 kts | 250° |
| 2026-05-05 21:07 | -33.93029 | 151.22039 | 623 ft | 141 kts | 251° |
| 2026-05-05 21:08 | -33.93318 | 151.20891 | 448 ft | 144 kts | 251° |
| 2026-05-05 21:08 | -33.93572 | 151.19747 | 217 ft | 139 kts | 250° |
| 2026-05-05 21:08 | -33.93831 | 151.18653 | 41 ft | 131 kts | 251° |
| 2026-05-05 21:08 | -33.94056 | 151.17714 | 34 ft | 94 kts | 254° |
| 2026-05-05 21:09 | -33.94188 | 151.17161 | 33 ft | 53 kts | 254° |
| 2026-05-05 21:09 | -33.94262 | 151.16896 | 33 ft | 12 kts | 214° |
| 2026-05-05 21:09 | -33.94344 | 151.16899 | 34 ft | 12 kts | 166° |
| 2026-05-05 21:09 | -33.94414 | 151.16949 | 35 ft | 12 kts | 139° |
| 2026-05-05 21:10 | -33.94473 | 151.16981 | 35 ft | 6 kts | 163° |
| 2026-05-05 21:10 | -33.94513 | 151.16993 | 35 ft | 3 kts | 166° |
| 2026-05-05 21:10 | -33.94515 | 151.16994 | 35 ft | 0 kts | 165° |